createdAt,value
2019-06-20T00:01:23.229Z,20.60
2019-06-20T00:03:51.714Z,20.60
2019-06-20T00:06:20.170Z,20.50
2019-06-20T00:08:48.673Z,20.50
2019-06-20T00:11:17.118Z,20.40
2019-06-20T00:13:45.589Z,20.40
2019-06-20T00:16:14.041Z,20.40
2019-06-20T00:18:42.513Z,20.30
2019-06-20T00:21:10.957Z,20.30
2019-06-20T00:23:39.439Z,20.30
2019-06-20T00:26:07.968Z,20.20
2019-06-20T00:28:36.520Z,20.20
2019-06-20T00:31:04.972Z,20.20
2019-06-20T00:33:33.438Z,20.20
2019-06-20T00:36:01.898Z,20.10
2019-06-20T00:38:30.389Z,20.10
2019-06-20T00:40:58.855Z,20.10
2019-06-20T00:43:27.333Z,20.10
2019-06-20T00:45:55.781Z,20.00
2019-06-20T00:48:24.221Z,20.00
2019-06-20T00:50:52.697Z,20.00
2019-06-20T00:53:21.156Z,20.00
2019-06-20T00:55:49.751Z,19.90
2019-06-20T00:58:18.319Z,19.90
2019-06-20T01:00:46.871Z,20.00
2019-06-20T01:03:15.317Z,20.00
2019-06-20T01:05:43.837Z,20.00
2019-06-20T01:08:12.426Z,20.00
2019-06-20T01:10:40.957Z,20.10
2019-06-20T01:13:09.409Z,20.10
2019-06-20T01:15:37.935Z,20.20
2019-06-20T01:18:06.602Z,20.20
2019-06-20T01:20:35.073Z,20.20
2019-06-20T01:23:03.523Z,20.30
2019-06-20T01:25:37.155Z,20.40
2019-06-20T01:28:06.068Z,20.40
2019-06-20T01:30:34.548Z,20.40
2019-06-20T01:33:03.007Z,20.60
2019-06-20T01:35:31.489Z,20.60
2019-06-20T01:37:59.935Z,20.70
2019-06-20T01:40:28.418Z,20.70
2019-06-20T01:42:56.874Z,20.70
2019-06-20T01:45:25.429Z,20.70
2019-06-20T01:47:53.948Z,20.70
2019-06-20T01:50:22.599Z,20.80
2019-06-20T01:52:51.048Z,20.70
2019-06-20T01:55:19.530Z,20.80
2019-06-20T01:57:47.989Z,20.80
2019-06-20T02:00:49.675Z,20.80
2019-06-20T02:03:18.458Z,20.80
2019-06-20T02:05:47.176Z,20.90
2019-06-20T02:08:15.954Z,20.90
2019-06-20T02:10:44.452Z,20.80
2019-06-20T02:13:12.953Z,20.70
2019-06-20T02:15:41.502Z,20.70
2019-06-20T02:18:11.599Z,20.60
2019-06-20T02:20:48.703Z,20.50
2019-06-20T02:23:17.421Z,20.40
2019-06-20T02:25:46.537Z,20.30
2019-06-20T02:28:15.630Z,20.30
2019-06-20T02:30:44.100Z,20.20
2019-06-20T02:33:12.564Z,20.10
2019-06-20T02:35:41.108Z,20.00
2019-06-20T02:38:09.555Z,19.90
2019-06-20T02:40:39.661Z,19.80
2019-06-20T02:43:08.244Z,19.80
2019-06-20T02:45:39.998Z,19.70
2019-06-20T02:48:08.527Z,19.70
2019-06-20T02:50:37.142Z,19.70
2019-06-20T02:53:05.936Z,19.70
2019-06-20T02:55:34.482Z,19.70
2019-06-20T02:58:02.926Z,19.70
2019-06-20T03:00:40.329Z,19.60
2019-06-20T03:03:08.774Z,19.70
2019-06-20T03:05:37.249Z,19.70
2019-06-20T03:08:05.697Z,19.60
2019-06-20T03:10:34.170Z,19.60
2019-06-20T03:13:02.611Z,19.50
2019-06-20T03:15:31.154Z,19.50
2019-06-20T03:17:59.627Z,19.50
2019-06-20T03:20:28.100Z,19.50
2019-06-20T03:22:56.547Z,19.50
2019-06-20T03:25:25.030Z,19.40
2019-06-20T03:27:53.565Z,19.40
2019-06-20T03:30:22.351Z,19.40
2019-06-20T03:32:50.905Z,19.40
2019-06-20T03:35:19.424Z,19.40
2019-06-20T03:37:50.223Z,19.50
2019-06-20T03:40:18.322Z,19.60
2019-06-20T03:42:46.874Z,19.80
2019-06-20T03:45:16.150Z,19.90
2019-06-20T03:47:44.638Z,20.00
2019-06-20T03:50:13.790Z,20.20
2019-06-20T03:52:42.265Z,20.40
2019-06-20T03:55:12.065Z,20.50
2019-06-20T03:57:40.899Z,20.50
2019-06-20T04:00:09.803Z,20.40
2019-06-20T04:02:38.398Z,20.30
2019-06-20T04:05:09.111Z,20.20
2019-06-20T04:07:37.581Z,20.30
2019-06-20T04:10:06.970Z,20.20
2019-06-20T04:12:35.453Z,20.20
2019-06-20T04:15:18.694Z,20.10
2019-06-20T04:17:35.600Z,20.10
2019-06-20T04:20:06.089Z,20.00
2019-06-20T04:22:34.633Z,20.00
2019-06-20T04:25:03.097Z,20.00
2019-06-20T04:27:31.562Z,20.10
2019-06-20T04:30:00.083Z,20.10
2019-06-20T04:32:28.562Z,20.10
2019-06-20T04:34:57.005Z,20.10
2019-06-20T04:37:25.481Z,20.20
2019-06-20T04:39:53.935Z,20.20
2019-06-20T04:42:22.479Z,20.30
2019-06-20T04:44:52.700Z,20.30
2019-06-20T04:47:20.392Z,20.40
2019-06-20T04:49:48.843Z,20.40
2019-06-20T04:52:17.328Z,20.40
2019-06-20T04:54:45.765Z,20.50
2019-06-20T04:57:14.238Z,20.50
2019-06-20T04:59:42.695Z,20.60
2019-06-20T05:02:14.754Z,20.70
2019-06-20T05:04:40.552Z,20.80
2019-06-20T05:07:17.676Z,20.80
2019-06-20T05:09:46.227Z,20.90
2019-06-20T05:12:14.707Z,21.00
2019-06-20T05:14:43.153Z,21.10
2019-06-20T05:17:11.626Z,21.20
2019-06-20T05:19:40.082Z,21.30
2019-06-20T05:22:08.621Z,21.40
2019-06-20T05:24:37.061Z,21.50
2019-06-20T05:27:05.525Z,21.60
2019-06-20T05:29:33.978Z,21.70
2019-06-20T05:32:02.449Z,21.90
2019-06-20T05:34:30.897Z,22.00
2019-06-20T05:36:59.371Z,22.10
2019-06-20T05:39:27.937Z,22.20
2019-06-20T05:41:56.380Z,22.30
2019-06-20T05:44:24.859Z,22.50
2019-06-20T05:47:11.208Z,22.50
2019-06-20T05:49:22.733Z,22.70
2019-06-20T05:51:51.280Z,22.80
2019-06-20T05:54:19.814Z,22.90
2019-06-20T05:56:48.330Z,23.00
2019-06-20T05:59:16.810Z,23.20
2019-06-20T06:01:45.267Z,23.30
2019-06-20T06:04:13.739Z,23.40
2019-06-20T06:06:42.955Z,23.50
2019-06-20T06:09:11.545Z,23.60
2019-06-20T06:11:39.989Z,23.80
2019-06-20T06:14:08.462Z,24.00
2019-06-20T06:16:36.911Z,24.10
2019-06-20T06:19:05.397Z,24.30
2019-06-20T06:21:33.841Z,24.50
2019-06-20T06:24:02.330Z,24.70
2019-06-20T06:26:30.856Z,24.80
2019-06-20T06:28:59.330Z,24.90
2019-06-20T06:31:27.770Z,24.90
2019-06-20T06:33:56.247Z,24.90
2019-06-20T06:36:24.690Z,25.00
2019-06-20T06:38:53.169Z,25.10
2019-06-20T06:41:21.627Z,25.10
2019-06-20T06:43:50.091Z,25.00
2019-06-20T06:46:18.544Z,24.90
2019-06-20T06:48:47.025Z,24.80
2019-06-20T06:51:15.574Z,24.40
2019-06-20T06:53:44.706Z,24.30
2019-06-20T06:56:13.229Z,24.20
2019-06-20T06:58:41.697Z,23.90
2019-06-20T07:01:10.406Z,23.70
2019-06-20T07:03:39.007Z,23.50
2019-06-20T07:09:23.752Z,22.80
2019-06-20T07:11:52.205Z,22.20
2019-06-20T07:14:20.685Z,22.00
2019-06-20T07:16:59.924Z,21.90
2019-06-20T07:19:20.771Z,21.70
2019-06-20T07:21:49.293Z,21.50
2019-06-20T07:24:17.831Z,21.40
2019-06-20T07:26:46.350Z,21.30
2019-06-20T07:29:14.818Z,21.30
2019-06-20T07:31:43.276Z,21.20
2019-06-20T07:34:11.759Z,21.30
2019-06-20T07:36:40.269Z,21.40
2019-06-20T07:39:12.178Z,21.50
2019-06-20T07:41:40.708Z,21.50
2019-06-20T07:44:09.259Z,21.60
2019-06-20T07:46:37.709Z,21.60
2019-06-20T07:49:06.273Z,21.70
2019-06-20T07:51:34.791Z,21.80
2019-06-20T07:54:03.303Z,21.90
2019-06-20T07:56:31.790Z,22.00
2019-06-20T07:59:00.231Z,21.90
2019-06-20T08:01:28.710Z,22.00
2019-06-20T08:03:57.194Z,22.10
2019-06-20T08:06:25.722Z,22.20
2019-06-20T08:08:54.179Z,22.10
2019-06-20T08:11:22.668Z,22.10
2019-06-20T08:13:51.125Z,22.10
2019-06-20T08:16:19.773Z,22.00
2019-06-20T08:18:48.214Z,22.10
2019-06-20T08:21:16.681Z,22.20
2019-06-20T08:23:45.122Z,22.40
2019-06-20T08:26:13.590Z,22.50
2019-06-20T08:28:42.066Z,22.70
2019-06-20T08:31:10.657Z,22.90
2019-06-20T08:33:39.597Z,23.10
2019-06-20T08:36:08.500Z,23.20
2019-06-20T08:38:37.091Z,23.30
2019-06-20T08:41:06.539Z,23.50
2019-06-20T08:43:35.275Z,23.50
2019-06-20T08:46:04.501Z,23.50
2019-06-20T08:48:34.076Z,23.60
2019-06-20T08:51:02.567Z,23.60
2019-06-20T08:53:31.079Z,23.50
2019-06-20T08:56:00.880Z,23.50
2019-06-20T08:58:28.969Z,23.60
2019-06-20T09:00:59.660Z,23.70
2019-06-20T09:03:26.835Z,23.80
2019-06-20T09:05:56.402Z,24.00
2019-06-20T09:08:24.744Z,24.10
2019-06-20T09:10:54.353Z,24.40
2019-06-20T09:13:23.319Z,24.60
2019-06-20T09:15:52.233Z,24.70
2019-06-20T09:18:21.831Z,24.80
2019-06-20T09:20:52.742Z,24.90
2019-06-20T09:23:20.622Z,24.80
2019-06-20T09:25:49.113Z,24.80
2019-06-20T09:28:17.568Z,24.80
2019-06-20T09:30:46.178Z,24.90
2019-06-20T09:33:14.706Z,24.80
2019-06-20T09:35:43.329Z,25.00
2019-06-20T09:38:11.773Z,25.20
2019-06-20T09:40:40.253Z,25.20
2019-06-20T09:43:10.476Z,25.30
2019-06-20T09:45:38.178Z,25.50
2019-06-20T09:48:06.619Z,25.40
2019-06-20T09:50:35.338Z,25.30
2019-06-20T09:53:03.799Z,25.20
2019-06-20T09:55:32.320Z,25.00
2019-06-20T09:58:00.805Z,25.00
2019-06-20T10:00:30.293Z,25.10
2019-06-20T10:02:58.772Z,25.10
2019-06-20T10:05:27.296Z,25.20
2019-06-20T10:07:56.660Z,25.00
2019-06-20T10:10:29.203Z,25.10
2019-06-20T10:12:58.229Z,25.20
2019-06-20T10:15:31.958Z,25.20
2019-06-20T10:18:00.600Z,25.20
2019-06-20T10:20:29.390Z,25.20
2019-06-20T10:22:57.925Z,25.20
2019-06-20T10:25:26.451Z,25.30
2019-06-20T10:27:54.998Z,25.10
2019-06-20T10:30:25.080Z,25.10
2019-06-20T10:32:53.557Z,25.10
2019-06-20T10:35:22.355Z,25.40
2019-06-20T10:37:50.963Z,25.50
2019-06-20T10:40:21.882Z,25.70
2019-06-20T10:42:50.437Z,25.70
2019-06-20T10:45:21.460Z,25.90
2019-06-20T10:47:50.951Z,26.10
2019-06-20T10:50:20.224Z,26.30
2019-06-20T10:52:49.989Z,26.30
2019-06-20T10:55:19.182Z,26.50
2019-06-20T10:57:49.634Z,26.50
2019-06-20T11:00:30.303Z,26.30
2019-06-20T11:02:49.219Z,26.30
2019-06-20T11:05:18.133Z,26.40
2019-06-20T11:07:47.546Z,26.80
2019-06-20T11:10:18.403Z,27.30
2019-06-20T11:12:52.323Z,27.50
2019-06-20T11:15:18.175Z,27.80
2019-06-20T11:17:46.823Z,28.30
2019-06-20T11:20:16.290Z,28.30
2019-06-20T11:22:45.359Z,28.40
2019-06-20T11:25:14.253Z,28.40
2019-06-20T11:27:42.816Z,28.60
2019-06-20T11:30:17.392Z,28.80
2019-06-20T11:32:45.873Z,28.70
2019-06-20T11:35:14.394Z,28.60
2019-06-20T11:37:42.898Z,28.70
2019-06-20T11:40:12.838Z,28.90
2019-06-20T11:42:41.944Z,29.00
2019-06-20T11:45:11.399Z,29.00
2019-06-20T11:47:40.518Z,28.60
2019-06-20T11:50:09.853Z,28.10
2019-06-20T11:52:42.102Z,28.00
2019-06-20T11:55:09.301Z,27.90
2019-06-20T11:57:37.787Z,28.00
2019-06-20T12:00:08.152Z,28.20
2019-06-20T12:02:37.403Z,28.90
2019-06-20T12:05:10.407Z,29.20
2019-06-20T12:07:41.060Z,29.60
2019-06-20T12:10:11.369Z,29.60
2019-06-20T12:12:41.033Z,29.90
2019-06-20T12:15:11.978Z,30.20
2019-06-20T12:17:41.744Z,30.60
2019-06-20T12:20:11.326Z,30.70
2019-06-20T12:22:41.285Z,31.00
2019-06-20T12:25:10.800Z,30.60
2019-06-20T12:27:40.653Z,30.30
2019-06-20T12:30:10.819Z,30.20
2019-06-20T12:32:39.125Z,30.40
2019-06-20T12:35:08.938Z,30.10
2019-06-20T12:37:37.385Z,30.10
2019-06-20T12:40:08.070Z,30.10
2019-06-20T12:42:39.165Z,30.50
2019-06-20T12:45:08.717Z,30.80
2019-06-20T12:47:38.249Z,30.80
2019-06-20T12:50:08.141Z,30.60
2019-06-20T12:52:37.856Z,30.60
2019-06-20T12:55:07.243Z,30.60
2019-06-20T12:57:35.765Z,31.00
2019-06-20T13:00:09.541Z,31.70
2019-06-20T13:02:40.398Z,32.30
2019-06-20T13:05:09.515Z,33.20
2019-06-20T13:07:39.224Z,33.20
2019-06-20T13:10:12.186Z,32.70
2019-06-20T13:12:42.263Z,32.30
2019-06-20T13:15:11.469Z,31.90
2019-06-20T13:17:41.319Z,31.80
2019-06-20T13:20:10.498Z,31.80
2019-06-20T13:22:39.505Z,32.10
2019-06-20T13:25:09.518Z,32.20
2019-06-20T13:27:39.179Z,32.10
2019-06-20T13:30:09.204Z,31.80
2019-06-20T13:32:38.479Z,31.30
2019-06-20T13:35:08.492Z,31.40
2019-06-20T13:37:38.447Z,31.20
2019-06-20T13:40:10.546Z,31.20
2019-06-20T13:42:40.253Z,30.80
2019-06-20T13:45:15.179Z,31.00
2019-06-20T13:47:43.643Z,30.90
2019-06-20T13:50:12.411Z,30.90
2019-06-20T13:52:44.624Z,31.00
2019-06-20T13:55:11.502Z,30.40
2019-06-20T13:57:41.223Z,30.60
2019-06-20T14:00:11.107Z,30.50
2019-06-20T14:02:41.045Z,30.50
2019-06-20T14:05:10.402Z,30.30
2019-06-20T14:07:42.161Z,30.00
2019-06-20T14:10:09.357Z,29.80
2019-06-20T14:12:37.957Z,29.70
2019-06-20T14:15:07.251Z,29.60
2019-06-20T14:17:35.777Z,29.90
2019-06-20T14:20:08.303Z,29.60
2019-06-20T14:22:36.554Z,29.10
2019-06-20T14:25:06.675Z,28.60
2019-06-20T14:27:35.390Z,28.20
2019-06-20T14:30:06.712Z,28.10
2019-06-20T14:32:35.229Z,28.10
2019-06-20T14:35:04.551Z,27.80
2019-06-20T14:37:33.071Z,27.80
2019-06-20T14:40:01.713Z,27.70
2019-06-20T14:42:30.242Z,27.60
2019-06-20T14:44:58.720Z,27.50
2019-06-20T14:47:27.229Z,27.30
2019-06-20T14:49:55.717Z,27.20
2019-06-20T14:52:24.254Z,27.10
2019-06-20T14:54:54.006Z,27.00
2019-06-20T14:57:22.608Z,26.50
2019-06-20T14:59:52.565Z,26.30
2019-06-20T15:02:21.290Z,26.20
2019-06-20T15:04:50.059Z,25.90
2019-06-20T15:07:18.697Z,25.70
2019-06-20T15:09:48.071Z,25.70
2019-06-20T15:12:16.929Z,25.60
2019-06-20T15:14:46.211Z,25.70
2019-06-20T15:17:14.906Z,25.80
2019-06-20T15:19:43.371Z,25.70
2019-06-20T15:22:11.925Z,25.80
2019-06-20T15:24:40.378Z,25.70
2019-06-20T15:27:08.865Z,26.10
2019-06-20T15:29:37.413Z,26.70
2019-06-20T15:32:06.034Z,27.40
2019-06-20T15:34:34.538Z,28.00
2019-06-20T15:37:06.280Z,28.70
2019-06-20T15:39:33.303Z,29.90
2019-06-20T15:42:01.887Z,30.90
2019-06-20T15:44:30.375Z,31.90
2019-06-20T15:46:58.859Z,32.50
2019-06-20T15:49:27.318Z,32.70
2019-06-20T15:51:58.941Z,32.10
2019-06-20T15:54:25.983Z,31.60
2019-06-20T15:56:54.587Z,30.90
2019-06-20T15:59:23.242Z,30.50
2019-06-20T16:01:51.910Z,30.40
2019-06-20T16:04:20.528Z,30.20
2019-06-20T16:06:49.082Z,30.10
2019-06-20T16:09:17.612Z,30.60
2019-06-20T16:11:46.109Z,30.80
2019-06-20T16:14:17.800Z,30.90
2019-06-20T16:16:44.754Z,31.20
2019-06-20T16:19:13.193Z,31.80
2019-06-20T16:21:41.666Z,32.20
2019-06-20T16:24:12.654Z,32.40
2019-06-20T16:26:41.743Z,32.70
2019-06-20T16:29:10.225Z,32.50
2019-06-20T16:31:38.712Z,32.50
2019-06-20T16:34:07.237Z,31.70
2019-06-20T16:36:35.698Z,31.20
2019-06-20T16:39:06.713Z,30.70
2019-06-20T16:41:35.185Z,31.00
2019-06-20T16:44:03.802Z,31.40
2019-06-20T16:46:32.291Z,31.40
2019-06-20T16:49:00.732Z,31.80
2019-06-20T16:51:29.186Z,32.00
2019-06-20T16:53:57.666Z,32.50
2019-06-20T16:56:26.119Z,32.50
2019-06-20T17:02:23.858Z,31.80
2019-06-20T17:04:55.739Z,31.60
2019-06-20T17:07:22.519Z,31.60
2019-06-20T17:09:50.963Z,31.90
2019-06-20T17:12:19.439Z,31.80
2019-06-20T17:14:47.886Z,32.10
2019-06-20T17:17:16.375Z,32.20
2019-06-20T17:19:44.917Z,32.40
2019-06-20T17:22:13.987Z,32.50
2019-06-20T17:24:42.497Z,32.30
2019-06-20T17:27:10.978Z,32.10
2019-06-20T17:29:39.438Z,31.80
2019-06-20T17:32:07.959Z,31.50
2019-06-20T17:34:36.453Z,31.10
2019-06-20T17:37:04.936Z,30.50
2019-06-20T17:39:33.548Z,30.00
2019-06-20T17:42:02.026Z,29.50
2019-06-20T17:44:30.546Z,29.10
2019-06-20T17:46:59.017Z,28.80
2019-06-20T17:49:27.487Z,28.70
2019-06-20T17:51:55.937Z,28.90
2019-06-20T17:54:24.490Z,28.90
2019-06-20T17:56:52.959Z,29.10
2019-06-20T17:59:23.031Z,29.20
2019-06-20T18:01:51.593Z,29.30
2019-06-20T18:04:20.162Z,29.40
2019-06-20T18:06:48.632Z,29.30
2019-06-20T18:09:17.178Z,29.20
2019-06-20T18:11:45.622Z,29.20
2019-06-20T18:14:14.098Z,29.20
2019-06-20T18:16:43.392Z,29.10
2019-06-20T18:19:11.873Z,29.10
2019-06-20T18:21:40.385Z,29.10
2019-06-20T18:24:08.860Z,29.10
2019-06-20T18:26:37.312Z,29.10
2019-06-20T18:29:05.797Z,28.90
2019-06-20T18:31:34.313Z,28.80
2019-06-20T18:34:02.792Z,28.60
2019-06-20T18:36:31.247Z,28.30
2019-06-20T18:38:59.719Z,28.30
2019-06-20T18:41:28.169Z,28.20
2019-06-20T18:43:56.640Z,28.10
2019-06-20T18:46:25.099Z,27.80
2019-06-20T18:48:53.578Z,27.60
2019-06-20T18:51:22.025Z,27.40
2019-06-20T18:54:23.821Z,27.30
2019-06-20T18:56:52.350Z,27.20
2019-06-20T18:59:20.897Z,27.00
2019-06-20T19:01:51.967Z,26.80
2019-06-20T19:04:20.470Z,26.60
2019-06-20T19:06:48.917Z,26.40
2019-06-20T19:09:17.385Z,26.20
2019-06-20T19:11:45.863Z,26.20
2019-06-20T19:14:14.419Z,26.00
2019-06-20T19:16:42.953Z,25.90
2019-06-20T19:19:11.518Z,25.80
2019-06-20T19:21:39.973Z,25.70
2019-06-20T19:24:08.463Z,25.60
2019-06-20T19:26:37.000Z,25.50
2019-06-20T19:29:05.599Z,25.30
2019-06-20T19:31:34.178Z,25.20
2019-06-20T19:34:02.740Z,25.10
2019-06-20T19:36:31.274Z,24.90
2019-06-20T19:38:59.871Z,24.70
2019-06-20T19:41:28.356Z,24.60
2019-06-20T19:43:56.815Z,24.40
2019-06-20T19:46:25.357Z,24.30
2019-06-20T19:48:53.838Z,24.20
2019-06-20T19:51:22.561Z,24.10
2019-06-20T19:53:51.168Z,24.00
2019-06-20T19:56:19.656Z,23.90
2019-06-20T19:58:48.436Z,23.80
2019-06-20T20:01:17.150Z,23.70
2019-06-20T20:03:47.562Z,23.70
2019-06-20T20:06:16.128Z,23.60
2019-06-20T20:08:44.895Z,23.50
2019-06-20T20:11:13.450Z,23.40
2019-06-20T20:13:41.987Z,23.40
2019-06-20T20:16:10.550Z,23.40
2019-06-20T20:18:39.009Z,23.30
2019-06-20T20:21:07.565Z,23.30
2019-06-20T20:23:36.083Z,23.20
2019-06-20T20:26:07.820Z,23.20
2019-06-20T20:28:34.824Z,23.10
2019-06-20T20:31:03.313Z,23.10
2019-06-20T20:33:31.845Z,23.00
2019-06-20T20:36:02.043Z,23.00
2019-06-20T20:38:30.917Z,23.00
2019-06-20T20:41:00.224Z,22.90
2019-06-20T20:43:28.681Z,22.90
2019-06-20T20:45:57.162Z,22.80
2019-06-20T20:48:25.872Z,22.80
2019-06-20T20:50:54.459Z,22.70
2019-06-20T20:53:23.021Z,22.70
2019-06-20T20:55:51.654Z,22.60
2019-06-20T20:58:20.276Z,22.60
2019-06-20T21:01:04.130Z,22.50
2019-06-20T21:03:32.733Z,22.50
2019-06-20T21:06:01.269Z,22.50
2019-06-20T21:08:32.778Z,22.50
2019-06-20T21:10:59.153Z,22.50
2019-06-20T21:13:27.679Z,22.50
2019-06-20T21:15:56.238Z,22.40
2019-06-20T21:18:24.681Z,22.30
2019-06-20T21:20:53.168Z,22.30
2019-06-20T21:23:21.622Z,22.30
2019-06-20T21:25:50.119Z,22.30
2019-06-20T21:28:18.633Z,22.30
2019-06-20T21:30:47.115Z,22.30
2019-06-20T21:33:15.573Z,22.20
2019-06-20T21:35:44.043Z,22.20
2019-06-20T21:38:12.502Z,22.20
2019-06-20T21:40:41.062Z,22.20
2019-06-20T21:43:09.524Z,22.10
2019-06-20T21:45:38.052Z,22.10
2019-06-20T21:48:06.542Z,22.00
2019-06-20T21:50:34.993Z,22.00
2019-06-20T21:53:03.485Z,22.00
2019-06-20T21:55:32.020Z,22.00
2019-06-20T21:58:00.485Z,22.00
2019-06-20T22:00:45.449Z,21.90
2019-06-20T22:03:14.391Z,21.90
2019-06-20T22:05:42.833Z,21.90
2019-06-20T22:08:11.477Z,21.80
2019-06-20T22:10:41.363Z,21.80
2019-06-20T22:13:09.874Z,21.80
2019-06-20T22:15:38.391Z,21.80
2019-06-20T22:18:07.224Z,21.80
2019-06-20T22:20:35.928Z,21.80
2019-06-20T22:23:04.686Z,21.80
2019-06-20T22:25:33.138Z,21.80
2019-06-20T22:28:02.524Z,21.80
2019-06-20T22:30:42.832Z,21.70
2019-06-20T22:33:11.319Z,21.70
2019-06-20T22:35:39.873Z,21.70
2019-06-20T22:38:08.414Z,21.70
2019-06-20T22:40:36.948Z,21.70
2019-06-20T22:43:05.428Z,21.70
2019-06-20T22:45:33.886Z,21.60
2019-06-20T22:48:02.612Z,21.60
2019-06-20T22:50:31.078Z,21.60
2019-06-20T22:52:59.640Z,21.60
2019-06-20T22:55:28.172Z,21.60
2019-06-20T22:57:56.645Z,21.60
2019-06-20T23:00:25.539Z,21.60
2019-06-20T23:02:54.013Z,21.60
2019-06-20T23:05:22.557Z,21.40
2019-06-20T23:21:25.933Z,21.10
2019-06-20T23:23:54.400Z,21.10
2019-06-20T23:26:22.858Z,21.00
2019-06-20T23:28:53.033Z,21.00
2019-06-20T23:31:21.566Z,20.80
2019-06-20T23:33:50.048Z,20.60
2019-06-20T23:36:18.572Z,20.60
2019-06-20T23:38:47.034Z,20.50
2019-06-20T23:41:15.485Z,20.40
2019-06-20T23:43:43.950Z,20.30
2019-06-20T23:46:12.402Z,20.30
2019-06-20T23:48:40.866Z,20.30
2019-06-20T23:51:24.508Z,20.20
2019-06-20T23:53:39.502Z,20.10
2019-06-20T23:56:08.093Z,20.10
2019-06-20T23:58:36.709Z,20.00
